Terminal Aerodrome Forecast
Issued by NWS Dallas/Fort Worth, TX

Home | Current Version | Previous Version | Text Only | Print | Product List | Glossary On
Versions: 1 2 3 4 5 6 7 8 9 10 11 12 13 14 15 16 17 18 19 20 21 22 23 24 25 26 27 28 29 30 31 32 33 34 35 36 37 38 39 40 41 42 43 44 45 46 47 48 49 50
000
FTUS44 KFWD 222050 AAA
TAFDFW
TAF AMD
KDFW 222050Z 2221/2324 16013KT P6SM FEW040 OVC250
     FM230000 15011KT P6SM FEW060 OVC170
     FM230800 16010KT P6SM BKN025
     FM231000 17009KT P6SM OVC013
     FM231900 16011KT P6SM VCSH BKN035=

USA.gov is the U.S. government's official web portal to all federal, state and local government web resources and services.